Time;durP1;ratioP1;P1;durP2;ratioP2;P2;SDS_P1;SDS_P2;PMS_P1;PMS_P2;Temp;Humidity;BMP_temperature;BMP_pressure;BME280_temperature;BME280_humidity;BME280_pressure;Samples;Min_cycle;Max_cycle;Signal;HPM_P1;HPM_P2
2022/04/24 00:04:47;;;;;;;;;;;10.80;65.80;;;;;;20672964;28;20040;-62
2022/04/24 00:14:49;;;;;;;;;;;10.80;65.20;;;;;;20671940;28;19969;-61
2022/04/24 00:24:50;;;;;;;;;;;10.90;64.20;;;;;;20669893;28;19922;-62
2022/04/24 00:34:53;;;;;;;;;;;10.80;65.90;;;;;;20670620;28;20427;-63
2022/04/24 00:44:54;;;;;;;;;;;10.70;66.60;;;;;;20667785;28;19921;-62
2022/04/24 00:54:56;;;;;;;;;;;10.60;66.60;;;;;;20668157;28;20316;-64
2022/04/24 01:04:57;;;;;;;;;;;10.40;66.10;;;;;;20668167;28;19967;-62
2022/04/24 01:14:59;;;;;;;;;;;10.40;65.10;;;;;;20666676;28;19960;-61
2022/04/24 01:25:01;;;;;;;;;;;10.60;64.10;;;;;;20666416;28;19965;-61
2022/04/24 01:35:03;;;;;;;;;;;10.50;63.60;;;;;;20674894;28;19925;-63
2022/04/24 01:45:05;;;;;;;;;;;10.40;63.30;;;;;;20680886;28;19933;-61
2022/04/24 01:55:06;;;;;;;;;;;10.50;63.20;;;;;;20681459;28;20317;-62
2022/04/24 02:05:07;;;;;;;;;;;10.50;62.60;;;;;;20680754;28;20291;-62
2022/04/24 02:15:17;;;;;;;;;;;10.30;62.70;;;;;;20707941;28;19926;-63
2022/04/24 02:25:26;;;;;;;;;;;10.90;61.00;;;;;;20678695;28;20340;-62
2022/04/24 02:35:33;;;;;;;;;;;10.00;64.30;;;;;;20677250;28;19941;-62
2022/04/24 02:45:44;;;;;;;;;;;9.80;64.90;;;;;;20675460;28;20272;-62
2022/04/24 02:55:54;;;;;;;;;;;9.80;65.00;;;;;;20676133;28;20023;-62
2022/04/24 03:06:06;;;;;;;;;;;9.70;64.60;;;;;;20674840;28;19929;-62
2022/04/24 03:16:27;;;;;;;;;;;;;;;;;;20674334;28;19922;-63
2022/04/24 03:26:51;;;;;;;;;;;;;;;;;;20674638;28;19923;-62
2022/04/24 03:37:07;;;;;;;;;;;9.50;65.40;;;;;;20673230;28;20269;-62
2022/04/24 03:47:18;;;;;;;;;;;9.40;65.80;;;;;;20672309;28;19922;-62
2022/04/24 03:57:31;;;;;;;;;;;10.00;65.30;;;;;;20671708;28;19928;-61
2022/04/24 04:07:39;;;;;;;;;;;;;;;;;;20670763;28;20016;-61
2022/04/24 04:17:49;;;;;;;;;;;10.10;64.90;;;;;;20670678;28;19925;-62
2022/04/24 04:27:57;;;;;;;;;;;;;;;;;;20669851;28;19921;-63
2022/04/24 04:38:01;;;;;;;;;;;;;;;;;;20668113;28;19929;-63
2022/04/24 04:48:23;;;;;;;;;;;;;;;;;;20667913;28;19925;-63
2022/04/24 04:58:25;;;;;;;;;;;;;;;;;;20668201;28;20052;-62
2022/04/24 05:08:28;;;;;;;;;;;;;;;;;;20674135;28;20412;-62
2022/04/24 05:18:30;;;;;;;;;;;;;;;;;;20683710;28;19922;-63
2022/04/24 05:28:31;;;;;;;;;;;;;;;;;;20683405;28;19958;-63
2022/04/24 05:38:33;;;;;;;;;;;;;;;;;;20682325;28;19922;-61
2022/04/24 05:48:42;;;;;;;;;;;;;;;;;;20681143;28;20027;-62
2022/04/24 05:58:47;;;;;;;;;;;;;;;;;;20680501;28;19921;-63
2022/04/24 06:08:49;;;;;;;;;;;;;;;;;;20680493;28;20257;-64
2022/04/24 06:18:53;;;;;;;;;;;;;;;;;;20677897;28;20376;-64
2022/04/24 06:28:55;;;;;;;;;;;;;;;;;;20677725;28;20013;-61
2022/04/24 06:39:00;;;;;;;;;;;;;;;;;;20677609;28;20004;-62
2022/04/24 06:49:02;;;;;;;;;;;10.50;64.60;;;;;;20676293;28;20364;-63
2022/04/24 06:59:05;;;;;;;;;;;10.70;64.60;;;;;;20677005;28;19929;-64
2022/04/24 07:09:08;;;;;;;;;;;9.70;67.10;;;;;;20707578;28;19933;-64
2022/04/24 07:19:10;;;;;;;;;;;10.20;66.60;;;;;;20674163;28;19932;-62
2022/04/24 07:29:13;;;;;;;;;;;;;;;;;;20672933;28;19928;-63
2022/04/24 07:39:20;;;;;;;;;;;12.70;59.40;;;;;;20672444;28;19929;-63
2022/04/24 07:49:22;;;;;;;;;;;12.30;60.70;;;;;;20671448;28;19928;-61
2022/04/24 07:59:25;;;;;;;;;;;12.70;59.90;;;;;;20671282;28;20004;-62
2022/04/24 08:09:28;;;;;;;;;;;12.90;57.30;;;;;;20672114;28;20360;-61
2022/04/24 08:19:31;;;;;;;;;;;13.40;55.90;;;;;;20670961;28;20032;-62
2022/04/24 08:29:33;;;;;;;;;;;13.50;54.50;;;;;;20701036;28;19932;-63
2022/04/24 08:39:37;;;;;;;;;;;;;;;;;;20667429;28;20364;-63
2022/04/24 08:49:44;;;;;;;;;;;14.80;51.70;;;;;;20667478;28;19961;-63
2022/04/24 08:59:46;;;;;;;;;;;15.30;50.60;;;;;;20667890;28;20006;-62
2022/04/24 09:09:50;;;;;;;;;;;;;;;;;;20668446;28;20375;-60
2022/04/24 09:19:52;;;;;;;;;;;16.40;44.80;;;;;;20666229;28;19929;-64
2022/04/24 09:30:00;;;;;;;;;;;15.60;47.40;;;;;;20666283;28;19921;-63
2022/04/24 09:40:04;;;;;;;;;;;;;;;;;;20665494;28;19929;-58
2022/04/24 09:50:10;;;;;;;;;;;;;;;;;;20665498;28;19922;-63
2022/04/24 10:00:12;;;;;;;;;;;17.00;46.90;;;;;;20713914;28;20406;-64
2022/04/24 10:10:17;;;;;;;;;;;16.20;47.20;;;;;;20761171;28;19925;-70
2022/04/24 10:20:34;;;;;;;;;;;16.00;48.10;;;;;;20758690;28;19984;-59
2022/04/24 10:30:35;;;;;;;;;;;16.10;46.60;;;;;;20760063;28;20015;-67
2022/04/24 10:40:39;;;;;;;;;;;16.20;47.10;;;;;;20762554;28;19921;-61
2022/04/24 10:50:49;;;;;;;;;;;16.20;45.70;;;;;;20794076;28;19928;-65
2022/04/24 11:00:51;;;;;;;;;;;16.40;46.30;;;;;;20756940;28;19943;-62
2022/04/24 11:11:03;;;;;;;;;;;16.40;45.80;;;;;;20755321;28;20132;-60
2022/04/24 11:21:06;;;;;;;;;;;16.20;46.00;;;;;;20755181;28;20387;-65
2022/04/24 11:31:08;;;;;;;;;;;;;;;;;;20754202;28;19928;-62
2022/04/24 11:41:12;;;;;;;;;;;17.60;42.00;;;;;;20754100;28;19921;-62
2022/04/24 11:51:13;;;;;;;;;;;16.60;43.90;;;;;;20754270;28;19961;-62
2022/04/24 12:01:17;;;;;;;;;;;;;;;;;;20753220;28;19933;-61
2022/04/24 12:11:29;;;;;;;;;;;17.80;40.80;;;;;;20752403;28;20008;-63
2022/04/24 12:21:32;;;;;;;;;;;17.00;40.70;;;;;;20752664;28;19921;-61
2022/04/24 12:31:35;;;;;;;;;;;;;;;;;;20752067;28;19961;-63
2022/04/24 12:41:37;;;;;;;;;;;18.20;39.50;;;;;;20750480;28;19988;-63
2022/04/24 12:51:39;;;;;;;;;;;17.70;39.80;;;;;;20749413;28;19921;-63
2022/04/24 13:01:43;;;;;;;;;;;17.80;37.70;;;;;;20748834;28;19922;-63
2022/04/24 13:11:45;;;;;;;;;;;18.70;37.80;;;;;;20749730;28;19971;-64
2022/04/24 13:21:47;;;;;;;;;;;17.90;37.90;;;;;;20748578;28;19940;-62
2022/04/24 13:31:48;;;;;;;;;;;18.00;38.60;;;;;;20757668;28;19928;-63
2022/04/24 13:41:49;;;;;;;;;;;18.00;38.50;;;;;;20763963;28;19925;-63
2022/04/24 13:51:50;;;;;;;;;;;18.10;39.60;;;;;;20765086;28;20259;-63
2022/04/24 14:01:51;;;;;;;;;;;18.10;40.10;;;;;;20763277;28;19967;-62
2022/04/24 14:11:54;;;;;;;;;;;18.10;39.60;;;;;;20761557;28;20256;-63
2022/04/24 14:21:55;;;;;;;;;;;18.20;39.50;;;;;;20761151;28;19960;-62
2022/04/24 14:31:56;;;;;;;;;;;18.30;38.80;;;;;;20759772;28;20338;-62
2022/04/24 14:41:57;;;;;;;;;;;18.20;38.80;;;;;;20760983;28;19921;-63
2022/04/24 15:02:19;;;;;;;;;;;18.20;39.80;;;;;;20757228;28;20382;-65
2022/04/24 15:12:20;;;;;;;;;;;18.30;39.60;;;;;;20755571;28;20335;-62
2022/04/24 15:22:21;;;;;;;;;;;18.50;38.60;;;;;;20755544;28;19940;-63
2022/04/24 15:32:23;;;;;;;;;;;18.00;39.50;;;;;;20755119;28;20020;-64
2022/04/24 15:42:24;;;;;;;;;;;18.10;39.50;;;;;;20753916;28;19925;-62
2022/04/24 15:52:27;;;;;;;;;;;18.10;39.90;;;;;;20753649;28;20008;-63
2022/04/24 16:02:28;;;;;;;;;;;18.20;40.20;;;;;;20754329;28;20064;-64
2022/04/24 16:12:30;;;;;;;;;;;18.10;40.30;;;;;;20753128;28;20013;-63
2022/04/24 16:22:32;;;;;;;;;;;18.30;40.10;;;;;;20752260;28;19929;-62
2022/04/24 16:32:34;;;;;;;;;;;19.10;38.90;;;;;;20753292;28;20386;-64
2022/04/24 16:42:35;;;;;;;;;;;18.60;40.10;;;;;;20769956;28;20493;-62
2022/04/24 17:02:59;;;;;;;;;;;18.20;40.70;;;;;;20748125;28;20446;-63
2022/04/24 17:13:02;;;;;;;;;;;18.20;41.10;;;;;;20748173;28;20000;-63
2022/04/24 17:23:04;;;;;;;;;;;18.10;41.30;;;;;;20748325;28;20341;-62
2022/04/24 17:33:06;;;;;;;;;;;18.10;41.30;;;;;;20748185;28;20338;-62
2022/04/24 17:43:09;;;;;;;;;;;18.00;41.30;;;;;;20746207;28;20004;-62
2022/04/24 17:53:10;;;;;;;;;;;17.80;41.80;;;;;;20747344;28;20419;-66
2022/04/24 18:03:12;;;;;;;;;;;17.70;42.50;;;;;;20747558;28;20000;-61
2022/04/24 18:13:13;;;;;;;;;;;17.60;43.00;;;;;;20749485;28;20363;-64
2022/04/24 18:23:14;;;;;;;;;;;17.30;44.00;;;;;;20760823;28;20276;-62
2022/04/24 18:33:18;;;;;;;;;;;17.20;45.10;;;;;;20759512;28;19921;-63
2022/04/24 18:43:20;;;;;;;;;;;16.90;46.00;;;;;;20757663;28;19976;-63
2022/04/24 18:53:21;;;;;;;;;;;16.80;46.90;;;;;;20758209;28;20129;-62
2022/04/24 19:03:23;;;;;;;;;;;16.90;47.20;;;;;;20758722;28;20351;-60
2022/04/24 19:13:24;;;;;;;;;;;16.30;48.30;;;;;;20755628;28;20119;-60
2022/04/24 19:23:25;;;;;;;;;;;16.20;48.90;;;;;;20755448;28;20012;-61
2022/04/24 19:33:27;;;;;;;;;;;;;;;;;;20754542;28;19921;-63
2022/04/24 19:43:29;;;;;;;;;;;;;;;;;;20753076;28;19996;-63
2022/04/24 19:53:31;;;;;;;;;;;;;;;;;;20753422;28;20036;-60
2022/04/24 20:03:32;;;;;;;;;;;;;;;;;;20752807;28;20019;-61
2022/04/24 20:13:34;;;;;;;;;;;;;;;;;;20751337;28;19921;-63
2022/04/24 20:23:36;;;;;;;;;;;;;;;;;;20753087;28;20299;-62
2022/04/24 20:33:38;;;;;;;;;;;;;;;;;;20750179;28;19921;-66
2022/04/24 20:43:40;;;;;;;;;;;;;;;;;;20747971;28;19929;-66
2022/04/24 20:53:42;;;;;;;;;;;;;;;;;;20779558;28;19922;-64
2022/04/24 21:03:45;;;;;;;;;;;;;;;;;;20749894;28;20272;-65
2022/04/24 21:13:47;;;;;;;;;;;15.90;49.50;;;;;;20747710;28;20482;-68
2022/04/24 21:23:49;;;;;;;;;;;15.10;51.20;;;;;;20747716;28;20337;-65
2022/04/24 21:33:50;;;;;;;;;;;14.90;51.90;;;;;;20747905;28;20355;-62
2022/04/24 21:43:52;;;;;;;;;;;14.90;52.60;;;;;;20746773;28;19971;-65
2022/04/24 21:53:54;;;;;;;;;;;14.70;53.40;;;;;;20758074;28;19922;-66
2022/04/24 22:14:18;;;;;;;;;;;14.60;54.70;;;;;;20760966;28;20020;-66
2022/04/24 22:24:28;;;;;;;;;;;14.40;55.10;;;;;;20759941;28;19921;-66
2022/04/24 22:34:30;;;;;;;;;;;14.20;55.30;;;;;;20759709;28;19929;-65
2022/04/24 22:44:32;;;;;;;;;;;14.20;55.90;;;;;;20759022;28;19952;-66
2022/04/24 22:54:34;;;;;;;;;;;14.20;54.50;;;;;;20758120;28;19921;-64
2022/04/24 23:04:35;;;;;;;;;;;;;;;;;;20756200;28;19932;-65
2022/04/24 23:14:37;;;;;;;;;;;14.90;51.70;;;;;;20756250;28;20016;-65
2022/04/24 23:24:40;;;;;;;;;;;13.60;55.00;;;;;;20755934;28;19922;-66
2022/04/24 23:34:44;;;;;;;;;;;13.40;55.90;;;;;;20753919;28;19928;-65
2022/04/24 23:44:45;;;;;;;;;;;13.20;56.50;;;;;;20753652;28;19927;-65
2022/04/24 23:54:47;;;;;;;;;;;13.00;57.60;;;;;;20753470;28;20012;-65
